createdAt,value
2022-12-25T00:02:32.477Z,17.60
2022-12-25T00:05:39.551Z,16.20
2022-12-25T00:08:43.673Z,15.23
2022-12-25T00:11:47.776Z,16.87
2022-12-25T00:14:50.333Z,16.53
2022-12-25T00:17:54.490Z,15.02
2022-12-25T00:21:03.129Z,16.10
2022-12-25T00:24:06.430Z,14.63
2022-12-25T00:27:10.947Z,13.47
2022-12-25T00:30:14.385Z,14.93
2022-12-25T00:33:17.931Z,14.30
2022-12-25T00:36:22.727Z,14.25
2022-12-25T00:39:25.378Z,12.98
2022-12-25T00:42:28.576Z,11.50
2022-12-25T00:45:35.342Z,11.27
2022-12-25T00:48:40.396Z,12.13
2022-12-25T00:51:43.058Z,9.35
2022-12-25T00:54:46.184Z,10.68
2022-12-25T00:57:50.419Z,10.57
2022-12-25T01:00:53.529Z,9.33
2022-12-25T01:03:56.322Z,10.50
2022-12-25T01:06:59.776Z,11.95
2022-12-25T01:10:23.587Z,10.88
2022-12-25T01:13:27.144Z,9.67
2022-12-25T01:16:30.817Z,10.27
2022-12-25T01:19:33.857Z,13.38
2022-12-25T01:22:38.358Z,9.55
2022-12-25T01:25:41.313Z,8.63
2022-12-25T01:28:44.211Z,8.97
2022-12-25T01:31:48.802Z,8.37
2022-12-25T01:34:55.858Z,9.57
2022-12-25T01:37:59.808Z,9.32
2022-12-25T01:41:02.565Z,11.05
2022-12-25T01:44:29.499Z,7.93
2022-12-25T01:47:32.606Z,9.27
2022-12-25T01:50:39.564Z,8.93
2022-12-25T01:53:42.095Z,11.18
2022-12-25T01:56:48.082Z,9.15
2022-12-25T01:59:52.306Z,12.07
2022-12-25T02:02:56.559Z,10.10
2022-12-25T02:06:04.311Z,10.07
2022-12-25T02:09:07.390Z,14.20
2022-12-25T02:12:34.321Z,9.90
2022-12-25T02:16:08.630Z,10.17
2022-12-25T02:19:38.640Z,12.65
2022-12-25T02:23:05.984Z,12.32
2022-12-25T02:26:13.619Z,10.75
2022-12-25T02:29:42.288Z,12.30
2022-12-25T02:33:18.923Z,10.20
2022-12-25T02:36:25.536Z,11.20
2022-12-25T02:39:59.270Z,11.70
2022-12-25T02:43:36.593Z,10.90
2022-12-25T02:46:57.899Z,13.07
2022-12-25T02:50:20.021Z,10.93
2022-12-25T02:53:41.629Z,12.23
2022-12-25T02:57:07.377Z,11.57
2022-12-25T03:00:32.145Z,10.30
2022-12-25T03:03:59.309Z,10.07
2022-12-25T03:07:10.130Z,10.03
2022-12-25T03:10:33.878Z,11.43
2022-12-25T03:13:40.004Z,10.70
2022-12-25T03:16:52.337Z,10.75
2022-12-25T03:20:13.990Z,13.67
2022-12-25T03:23:40.618Z,12.63
2022-12-25T03:26:57.070Z,11.70
2022-12-25T03:30:18.598Z,14.02
2022-12-25T03:34:18.229Z,11.80
2022-12-25T03:37:44.290Z,15.80
2022-12-25T03:41:14.994Z,16.27
2022-12-25T03:44:48.521Z,14.98
2022-12-25T03:48:13.567Z,16.62
2022-12-25T03:51:39.287Z,14.52
2022-12-25T03:55:02.651Z,13.63
2022-12-25T03:58:23.801Z,13.97
2022-12-25T04:01:50.043Z,14.38
2022-12-25T04:05:12.518Z,12.70
2022-12-25T04:08:34.009Z,15.90
2022-12-25T04:12:02.049Z,12.20
2022-12-25T04:15:24.755Z,16.30
2022-12-25T04:18:46.623Z,11.55
2022-12-25T04:22:08.663Z,14.57
2022-12-25T04:25:30.420Z,13.02
2022-12-25T04:28:52.340Z,12.73
2022-12-25T04:32:14.619Z,14.77
2022-12-25T04:35:35.720Z,12.00
2022-12-25T04:38:40.280Z,14.32
2022-12-25T04:41:46.004Z,12.60
2022-12-25T04:44:50.518Z,11.70
2022-12-25T04:47:53.321Z,12.87
2022-12-25T04:50:57.264Z,13.95
2022-12-25T04:54:00.453Z,14.68
2022-12-25T04:57:04.034Z,14.07
2022-12-25T05:00:09.055Z,13.00
2022-12-25T05:03:12.283Z,14.33
2022-12-25T05:06:15.209Z,15.18
2022-12-25T05:09:21.851Z,13.85
2022-12-25T05:12:26.579Z,11.80
2022-12-25T05:15:30.643Z,16.67
2022-12-25T05:18:33.904Z,16.03
2022-12-25T05:21:37.283Z,19.80
2022-12-25T05:24:39.844Z,15.85
2022-12-25T05:27:42.662Z,17.02
2022-12-25T05:30:45.835Z,18.70
2022-12-25T05:33:51.580Z,14.25
2022-12-25T05:36:54.125Z,13.95
2022-12-25T05:39:59.819Z,20.20
2022-12-25T05:43:02.757Z,12.90
2022-12-25T05:46:07.479Z,14.53
2022-12-25T05:49:10.542Z,13.57
2022-12-25T05:52:19.590Z,12.77
2022-12-25T05:55:22.832Z,17.48
2022-12-25T05:58:28.623Z,12.63
2022-12-25T06:01:33.296Z,15.03
2022-12-25T06:04:37.604Z,14.03
2022-12-25T06:07:40.628Z,13.90
2022-12-25T06:10:43.853Z,15.77
2022-12-25T06:13:52.875Z,16.42
2022-12-25T06:16:56.615Z,14.43
2022-12-25T06:20:00.774Z,16.30
2022-12-25T06:23:10.350Z,14.85
2022-12-25T06:26:17.135Z,16.85
2022-12-25T06:29:20.342Z,14.05
2022-12-25T06:32:25.243Z,12.97
2022-12-25T06:35:28.401Z,14.35
2022-12-25T06:38:31.791Z,17.05
2022-12-25T06:41:35.911Z,16.20
2022-12-25T06:44:41.288Z,18.00
2022-12-25T06:47:44.367Z,17.77
2022-12-25T06:50:55.200Z,18.77
2022-12-25T06:54:04.788Z,16.58
2022-12-25T06:57:10.006Z,18.35
2022-12-25T07:00:15.971Z,16.50
2022-12-25T07:03:30.280Z,16.53
2022-12-25T07:06:35.591Z,16.30
2022-12-25T07:09:43.306Z,17.05
2022-12-25T07:12:54.647Z,23.10
2022-12-25T07:16:05.516Z,22.95
2022-12-25T07:19:12.284Z,22.50
2022-12-25T07:22:19.285Z,23.63
2022-12-25T07:25:25.394Z,49.33
2022-12-25T07:28:34.022Z,28.98
2022-12-25T07:31:40.499Z,24.08
2022-12-25T07:34:46.477Z,18.03
2022-12-25T07:37:51.080Z,19.87
2022-12-25T07:40:57.815Z,32.80
2022-12-25T07:44:02.377Z,41.37
2022-12-25T07:47:15.008Z,31.73
2022-12-25T07:50:19.112Z,31.03
2022-12-25T07:53:32.778Z,30.10
2022-12-25T07:56:35.945Z,22.62
2022-12-25T07:59:51.565Z,21.40
2022-12-25T08:03:02.372Z,25.70
2022-12-25T08:06:13.941Z,27.20
2022-12-25T08:09:24.491Z,28.73
2022-12-25T08:12:27.645Z,29.08
2022-12-25T08:15:32.521Z,32.65
2022-12-25T08:18:45.185Z,32.25
2022-12-25T08:21:49.751Z,32.30
2022-12-25T08:24:57.082Z,28.87
2022-12-25T08:28:07.689Z,26.50
2022-12-25T08:31:20.677Z,31.83
2022-12-25T08:34:27.802Z,26.60
2022-12-25T08:37:39.264Z,24.93
2022-12-25T08:40:51.238Z,23.37
2022-12-25T08:43:54.830Z,21.75
2022-12-25T08:47:00.416Z,24.48
2022-12-25T08:50:07.952Z,21.37
2022-12-25T08:53:10.772Z,23.30
2022-12-25T08:56:15.304Z,20.57
2022-12-25T08:59:22.275Z,22.13
2022-12-25T09:02:32.271Z,21.40
2022-12-25T09:05:40.308Z,17.58
2022-12-25T09:08:50.937Z,23.53
2022-12-25T09:11:55.723Z,20.43
2022-12-25T09:15:07.068Z,19.15
2022-12-25T09:18:12.139Z,19.02
2022-12-25T09:21:17.516Z,16.48
2022-12-25T09:24:25.264Z,15.80
2022-12-25T09:27:29.585Z,14.83
2022-12-25T09:30:32.856Z,16.12
2022-12-25T09:33:36.756Z,15.73
2022-12-25T09:36:39.386Z,14.93
2022-12-25T09:39:46.781Z,18.03
2022-12-25T09:42:49.678Z,12.83
2022-12-25T09:45:52.742Z,13.95
2022-12-25T09:49:22.163Z,15.98
2022-12-25T09:52:44.321Z,14.98
2022-12-25T09:56:25.787Z,12.87
2022-12-25T09:59:30.555Z,11.23
2022-12-25T10:03:04.328Z,14.60
2022-12-25T10:06:23.231Z,12.15
2022-12-25T10:09:55.273Z,16.48
2022-12-25T10:13:17.123Z,14.73
2022-12-25T10:16:57.439Z,10.43
2022-12-25T10:20:41.412Z,12.35
2022-12-25T10:23:58.329Z,13.80
2022-12-25T10:27:12.505Z,14.20
2022-12-25T10:30:24.314Z,15.17
2022-12-25T10:33:31.355Z,10.03
2022-12-25T10:36:37.907Z,8.95
2022-12-25T10:39:47.017Z,9.77
2022-12-25T10:43:10.474Z,9.70
2022-12-25T10:46:20.413Z,11.13
2022-12-25T10:49:39.948Z,7.80
2022-12-25T10:53:17.092Z,10.43
2022-12-25T10:56:24.086Z,18.12
2022-12-25T10:59:58.757Z,11.02
2022-12-25T11:03:23.693Z,9.90
2022-12-25T11:06:30.736Z,10.27
2022-12-25T11:09:38.384Z,12.37
2022-12-25T11:12:51.429Z,10.68
2022-12-25T11:16:09.785Z,10.30
2022-12-25T11:19:39.317Z,11.90
2022-12-25T11:22:45.857Z,24.70
2022-12-25T11:26:07.304Z,19.55
2022-12-25T11:29:48.276Z,17.35
2022-12-25T11:32:56.446Z,15.35
2022-12-25T11:36:21.299Z,16.07
2022-12-25T11:39:30.175Z,23.50
2022-12-25T11:42:50.151Z,13.18
2022-12-25T11:46:05.367Z,11.12
2022-12-25T11:49:15.688Z,9.75
2022-12-25T11:52:23.975Z,13.40
2022-12-25T11:55:58.141Z,11.43
2022-12-25T11:59:18.089Z,12.85
2022-12-25T12:02:30.287Z,10.98
2022-12-25T12:05:45.598Z,13.15
2022-12-25T12:09:20.219Z,13.00
2022-12-25T12:12:49.220Z,14.37
2022-12-25T12:15:58.536Z,16.08
2022-12-25T12:19:34.857Z,15.48
2022-12-25T12:22:39.032Z,13.62
2022-12-25T12:25:46.335Z,12.13
2022-12-25T12:28:51.800Z,14.77
2022-12-25T12:32:06.528Z,11.38
2022-12-25T12:35:19.187Z,11.32
2022-12-25T12:38:30.283Z,11.65
2022-12-25T12:41:48.610Z,12.03
2022-12-25T12:44:59.322Z,12.90
2022-12-25T12:48:15.771Z,12.13
2022-12-25T12:51:34.583Z,12.90
2022-12-25T12:55:03.146Z,12.02
2022-12-25T12:58:25.279Z,11.60
2022-12-25T13:01:28.228Z,11.60
2022-12-25T13:04:56.203Z,14.93
2022-12-25T13:08:31.368Z,15.68
2022-12-25T13:11:40.932Z,14.30
2022-12-25T13:14:49.998Z,18.20
2022-12-25T13:18:08.284Z,12.60
2022-12-25T13:21:19.561Z,13.73
2022-12-25T13:24:30.471Z,14.20
2022-12-25T13:27:47.194Z,16.50
2022-12-25T13:31:19.519Z,13.93
2022-12-25T13:34:33.814Z,14.93
2022-12-25T13:37:37.966Z,13.82
2022-12-25T13:41:09.733Z,14.48
2022-12-25T13:44:27.045Z,17.48
2022-12-25T13:47:39.467Z,18.00
2022-12-25T13:50:48.772Z,16.50
2022-12-25T13:54:08.948Z,20.95
2022-12-25T13:57:21.625Z,20.83
2022-12-25T14:00:56.222Z,22.33
2022-12-25T14:04:00.326Z,49.77
2022-12-25T14:07:27.278Z,28.47
2022-12-25T14:10:39.448Z,24.42
2022-12-25T14:13:54.825Z,23.80
2022-12-25T14:17:01.369Z,23.55
2022-12-25T14:20:09.350Z,17.13
2022-12-25T14:23:16.388Z,15.07
2022-12-25T14:26:31.302Z,21.08
2022-12-25T14:29:51.297Z,129.98
2022-12-25T14:32:58.420Z,54.10
2022-12-25T14:36:06.781Z,63.43
2022-12-25T14:39:29.828Z,37.10
2022-12-25T14:42:35.619Z,19.67
2022-12-25T14:45:43.300Z,15.55
2022-12-25T14:49:06.389Z,10.90
2022-12-25T14:52:23.653Z,15.17
2022-12-25T14:55:47.185Z,13.73
2022-12-25T14:58:59.518Z,33.95
2022-12-25T15:02:03.355Z,56.37
2022-12-25T15:05:25.923Z,89.62
2022-12-25T15:08:35.763Z,34.37
2022-12-25T15:11:42.348Z,27.57
2022-12-25T15:14:47.949Z,23.12
2022-12-25T15:17:54.216Z,27.45
2022-12-25T15:21:01.820Z,25.48
2022-12-25T15:24:13.243Z,25.53
2022-12-25T15:27:21.499Z,25.47
2022-12-25T15:30:35.674Z,37.28
2022-12-25T15:33:44.387Z,76.20
2022-12-25T15:36:57.553Z,88.82
2022-12-25T15:40:12.044Z,111.23
2022-12-25T15:43:40.272Z,43.00
2022-12-25T15:46:47.440Z,35.97
2022-12-25T15:50:10.203Z,28.62
2022-12-25T15:53:27.434Z,24.25
2022-12-25T15:56:37.304Z,22.17
2022-12-25T15:59:44.811Z,27.63
2022-12-25T16:02:53.812Z,17.83
2022-12-25T16:06:03.179Z,26.62
2022-12-25T16:09:13.873Z,21.65
2022-12-25T16:12:18.612Z,16.47
2022-12-25T16:15:32.619Z,16.93
2022-12-25T16:18:47.151Z,21.40
2022-12-25T16:22:00.306Z,14.38
2022-12-25T16:25:19.004Z,14.60
2022-12-25T16:28:27.521Z,12.57
2022-12-25T16:31:40.698Z,13.87
2022-12-25T16:35:00.148Z,14.40
2022-12-25T16:38:14.233Z,16.80
2022-12-25T16:41:28.600Z,14.30
2022-12-25T16:44:36.639Z,13.20
2022-12-25T16:47:41.132Z,12.40
2022-12-25T16:50:52.294Z,18.20
2022-12-25T16:53:57.572Z,18.23
2022-12-25T16:57:02.482Z,20.50
2022-12-25T17:00:20.288Z,27.00
2022-12-25T17:03:40.277Z,21.67
2022-12-25T17:06:50.399Z,46.92
2022-12-25T17:09:57.590Z,45.92
2022-12-25T17:13:02.232Z,57.88
2022-12-25T17:16:26.225Z,147.90
2022-12-25T17:19:40.286Z,63.37
2022-12-25T17:22:45.571Z,38.85
2022-12-25T17:25:51.248Z,31.58
2022-12-25T17:28:58.331Z,30.08
2022-12-25T17:32:02.067Z,21.83
2022-12-25T17:35:08.910Z,21.30
2022-12-25T17:38:17.529Z,32.17
2022-12-25T17:41:23.451Z,38.08
2022-12-25T17:44:37.293Z,42.40
2022-12-25T17:47:44.326Z,73.37
2022-12-25T17:50:53.647Z,72.77
2022-12-25T17:54:07.266Z,52.13
2022-12-25T17:57:22.339Z,52.20
2022-12-25T18:00:30.889Z,43.55
2022-12-25T18:03:41.386Z,40.33
2022-12-25T18:06:59.417Z,30.87
2022-12-25T18:10:09.287Z,33.28
2022-12-25T18:13:16.477Z,29.90
2022-12-25T18:16:23.287Z,23.02
2022-12-25T18:19:36.126Z,24.33
2022-12-25T18:22:51.194Z,28.27
2022-12-25T18:26:02.078Z,23.58
2022-12-25T18:29:13.180Z,18.77
2022-12-25T18:32:27.869Z,15.80
2022-12-25T18:35:45.308Z,18.07
2022-12-25T18:38:53.305Z,15.80
2022-12-25T18:42:20.443Z,17.40
2022-12-25T18:45:43.231Z,15.88
2022-12-25T18:48:48.128Z,16.23
2022-12-25T18:51:53.830Z,17.53
2022-12-25T18:55:20.572Z,13.63
2022-12-25T18:58:26.532Z,13.85
2022-12-25T19:01:34.393Z,14.05
2022-12-25T19:04:44.479Z,13.52
2022-12-25T19:07:57.315Z,16.83
2022-12-25T19:11:13.304Z,13.90
2022-12-25T19:14:19.324Z,14.80
2022-12-25T19:17:31.838Z,13.75
2022-12-25T19:20:41.663Z,13.88
2022-12-25T19:23:52.289Z,19.00
2022-12-25T19:27:17.714Z,15.47
2022-12-25T19:30:23.529Z,17.87
2022-12-25T19:33:36.481Z,13.80
2022-12-25T19:36:46.908Z,14.15
2022-12-25T19:39:52.800Z,15.57
2022-12-25T19:43:10.138Z,13.40
2022-12-25T19:46:28.271Z,12.73
2022-12-25T19:49:37.339Z,13.80
2022-12-25T19:52:52.289Z,12.30
2022-12-25T19:55:59.284Z,12.37
2022-12-25T19:59:15.803Z,16.03
2022-12-25T20:02:20.435Z,13.98
2022-12-25T20:05:28.332Z,14.18
2022-12-25T20:08:38.589Z,12.82
2022-12-25T20:11:43.738Z,21.27
2022-12-25T20:14:51.358Z,18.60
2022-12-25T20:17:58.248Z,16.70
2022-12-25T20:21:09.376Z,17.52
2022-12-25T20:24:20.286Z,18.15
2022-12-25T20:27:24.556Z,14.97
2022-12-25T20:30:44.307Z,14.43
2022-12-25T20:33:50.593Z,13.27
2022-12-25T20:36:58.245Z,12.37
2022-12-25T20:40:05.584Z,12.02
2022-12-25T20:43:09.898Z,11.93
2022-12-25T20:46:22.869Z,14.00
2022-12-25T20:49:32.510Z,13.98
2022-12-25T20:52:37.648Z,10.90
2022-12-25T20:55:47.623Z,19.83
2022-12-25T20:59:02.341Z,39.13
2022-12-25T21:02:34.059Z,16.90
2022-12-25T21:05:49.986Z,15.68
2022-12-25T21:09:01.843Z,14.23
2022-12-25T21:12:07.445Z,14.90
2022-12-25T21:15:19.374Z,16.97
2022-12-25T21:18:25.271Z,15.40
2022-12-25T21:21:32.058Z,14.43
2022-12-25T21:24:36.047Z,14.65
2022-12-25T21:27:41.104Z,13.50
2022-12-25T21:30:45.483Z,16.23
2022-12-25T21:33:56.429Z,12.57
2022-12-25T21:37:07.984Z,13.88
2022-12-25T21:40:16.641Z,12.80
2022-12-25T21:43:28.240Z,14.40
2022-12-25T21:46:33.243Z,15.80
2022-12-25T21:49:56.116Z,14.07
2022-12-25T21:53:02.451Z,20.95
2022-12-25T21:56:08.228Z,13.93
2022-12-25T21:59:21.741Z,16.73
2022-12-25T22:02:26.607Z,16.07
2022-12-25T22:05:52.220Z,17.47
2022-12-25T22:09:00.647Z,17.92
2022-12-25T22:12:31.874Z,16.77
2022-12-25T22:15:56.356Z,16.52
2022-12-25T22:19:20.247Z,21.27
2022-12-25T22:22:26.448Z,18.37
2022-12-25T22:25:38.760Z,18.02
2022-12-25T22:28:44.018Z,20.62
2022-12-25T22:31:56.188Z,21.95
2022-12-25T22:35:04.224Z,21.47
2022-12-25T22:38:07.935Z,16.83
2022-12-25T22:41:13.439Z,22.02
2022-12-25T22:44:18.111Z,17.52
2022-12-25T22:47:22.220Z,20.08
2022-12-25T22:50:27.416Z,18.10
2022-12-25T22:53:32.422Z,17.70
2022-12-25T22:56:35.791Z,18.00
2022-12-25T22:59:40.159Z,23.27
2022-12-25T23:02:44.575Z,28.52
2022-12-25T23:05:56.116Z,18.40
2022-12-25T23:09:02.067Z,27.90
2022-12-25T23:12:06.572Z,29.92
2022-12-25T23:15:09.961Z,23.73
2022-12-25T23:18:35.934Z,22.27
2022-12-25T23:22:00.920Z,17.53
2022-12-25T23:25:53.313Z,17.77
2022-12-25T23:29:15.147Z,21.08
2022-12-25T23:32:22.694Z,19.65
2022-12-25T23:35:27.881Z,19.23
2022-12-25T23:38:31.118Z,20.73
2022-12-25T23:41:35.488Z,18.80
2022-12-25T23:44:38.402Z,16.52
2022-12-25T23:47:44.157Z,17.45
2022-12-25T23:50:50.226Z,16.67
2022-12-25T23:53:53.359Z,17.67
2022-12-25T23:56:57.712Z,21.80
